sensor_id;sensor_type;location;lat;lon;timestamp;pressure;altitude;pressure_sealevel;temperature;humidity
19286;BME280;9776;50.798;6.430;2023-04-03T00:01:02;101423.75;;;5.39;56.44
19286;BME280;9776;50.798;6.430;2023-04-03T00:03:29;101427.41;;;5.36;56.28
19286;BME280;9776;50.798;6.430;2023-04-03T00:05:57;101423.66;;;5.40;56.29
19286;BME280;9776;50.798;6.430;2023-04-03T00:08:24;101428.53;;;5.46;56.11
19286;BME280;9776;50.798;6.430;2023-04-03T00:10:51;101423.84;;;5.51;56.21
19286;BME280;9776;50.798;6.430;2023-04-03T00:13:18;101417.81;;;5.51;55.99
19286;BME280;9776;50.798;6.430;2023-04-03T00:15:44;101415.44;;;5.46;56.08
19286;BME280;9776;50.798;6.430;2023-04-03T00:18:11;101412.81;;;5.46;56.05
19286;BME280;9776;50.798;6.430;2023-04-03T00:20:38;101417.38;;;5.43;56.16
19286;BME280;9776;50.798;6.430;2023-04-03T00:23:06;101414.78;;;5.43;56.03
19286;BME280;9776;50.798;6.430;2023-04-03T00:25:33;101421.13;;;5.39;55.96
19286;BME280;9776;50.798;6.430;2023-04-03T00:28:00;101426.19;;;5.42;55.97
19286;BME280;9776;50.798;6.430;2023-04-03T00:30:27;101430.59;;;5.41;55.94
19286;BME280;9776;50.798;6.430;2023-04-03T00:32:54;101434.97;;;5.41;55.79
19286;BME280;9776;50.798;6.430;2023-04-03T00:35:22;101436.00;;;5.38;55.88
19286;BME280;9776;50.798;6.430;2023-04-03T00:37:51;101434.97;;;5.41;55.83
19286;BME280;9776;50.798;6.430;2023-04-03T00:40:21;101425.34;;;5.41;55.80
19286;BME280;9776;50.798;6.430;2023-04-03T00:42:51;101430.31;;;5.46;55.70
19286;BME280;9776;50.798;6.430;2023-04-03T00:45:32;101442.19;;;5.51;55.54
19286;BME280;9776;50.798;6.430;2023-04-03T00:48:00;101432.50;;;5.53;55.55
19286;BME280;9776;50.798;6.430;2023-04-03T00:50:29;101434.81;;;5.58;55.47
19286;BME280;9776;50.798;6.430;2023-04-03T00:52:56;101440.56;;;5.64;55.50
19286;BME280;9776;50.798;6.430;2023-04-03T00:55:25;101435.38;;;5.63;55.57
19286;BME280;9776;50.798;6.430;2023-04-03T00:57:51;101440.72;;;5.61;55.47
19286;BME280;9776;50.798;6.430;2023-04-03T01:00:20;101434.75;;;5.59;55.52
19286;BME280;9776;50.798;6.430;2023-04-03T01:02:47;101432.22;;;5.58;55.67
19286;BME280;9776;50.798;6.430;2023-04-03T01:05:17;101441.06;;;5.41;56.27
19286;BME280;9776;50.798;6.430;2023-04-03T01:07:44;101438.44;;;5.41;56.48
19286;BME280;9776;50.798;6.430;2023-04-03T01:10:14;101418.41;;;5.40;56.74
19286;BME280;9776;50.798;6.430;2023-04-03T01:12:44;101427.69;;;5.46;56.86
19286;BME280;9776;50.798;6.430;2023-04-03T01:15:13;101431.91;;;5.48;56.79
19286;BME280;9776;50.798;6.430;2023-04-03T01:17:43;101431.63;;;5.39;57.38
19286;BME280;9776;50.798;6.430;2023-04-03T01:20:46;101426.38;;;5.39;57.57
19286;BME280;9776;50.798;6.430;2023-04-03T01:23:26;101422.28;;;5.49;57.53
19286;BME280;9776;50.798;6.430;2023-04-03T01:25:55;101431.28;;;5.59;57.43
19286;BME280;9776;50.798;6.430;2023-04-03T01:28:26;101425.56;;;5.66;57.51
19286;BME280;9776;50.798;6.430;2023-04-03T01:31:00;101422.88;;;5.68;57.35
19286;BME280;9776;50.798;6.430;2023-04-03T01:33:30;101429.53;;;5.73;57.24
19286;BME280;9776;50.798;6.430;2023-04-03T01:35:57;101424.47;;;5.70;57.04
19286;BME280;9776;50.798;6.430;2023-04-03T01:38:24;101418.38;;;5.70;57.23
19286;BME280;9776;50.798;6.430;2023-04-03T01:40:51;101426.25;;;5.70;57.06
19286;BME280;9776;50.798;6.430;2023-04-03T01:43:17;101426.59;;;5.64;57.10
19286;BME280;9776;50.798;6.430;2023-04-03T01:45:44;101430.25;;;5.61;57.12
19286;BME280;9776;50.798;6.430;2023-04-03T01:48:12;101429.50;;;5.59;57.20
19286;BME280;9776;50.798;6.430;2023-04-03T01:50:40;101435.78;;;5.57;57.15
19286;BME280;9776;50.798;6.430;2023-04-03T01:53:06;101431.72;;;5.51;57.31
19286;BME280;9776;50.798;6.430;2023-04-03T01:55:33;101430.97;;;5.49;57.26
19286;BME280;9776;50.798;6.430;2023-04-03T01:58:00;101438.94;;;5.48;57.29
19286;BME280;9776;50.798;6.430;2023-04-03T02:00:26;101440.78;;;5.46;57.39
19286;BME280;9776;50.798;6.430;2023-04-03T02:02:53;101432.09;;;5.45;57.31
19286;BME280;9776;50.798;6.430;2023-04-03T02:05:19;101444.59;;;5.40;57.54
19286;BME280;9776;50.798;6.430;2023-04-03T02:07:47;101442.09;;;5.39;57.61
19286;BME280;9776;50.798;6.430;2023-04-03T02:10:14;101450.00;;;5.37;57.51
19286;BME280;9776;50.798;6.430;2023-04-03T02:12:41;101447.84;;;5.30;57.79
19286;BME280;9776;50.798;6.430;2023-04-03T02:15:08;101444.84;;;5.22;58.00
19286;BME280;9776;50.798;6.430;2023-04-03T02:17:35;101442.81;;;5.11;58.30
19286;BME280;9776;50.798;6.430;2023-04-03T02:20:02;101437.75;;;5.08;58.45
19286;BME280;9776;50.798;6.430;2023-04-03T02:22:29;101445.69;;;5.06;58.44
19286;BME280;9776;50.798;6.430;2023-04-03T02:24:57;101450.09;;;5.06;58.53
19286;BME280;9776;50.798;6.430;2023-04-03T02:27:24;101450.25;;;5.03;58.40
19286;BME280;9776;50.798;6.430;2023-04-03T02:29:50;101451.09;;;5.03;58.52
19286;BME280;9776;50.798;6.430;2023-04-03T02:32:17;101446.91;;;5.01;58.59
19286;BME280;9776;50.798;6.430;2023-04-03T02:34:44;101448.59;;;5.02;58.59
19286;BME280;9776;50.798;6.430;2023-04-03T02:37:11;101445.38;;;4.97;58.65
19286;BME280;9776;50.798;6.430;2023-04-03T02:39:37;101448.25;;;4.92;58.68
19286;BME280;9776;50.798;6.430;2023-04-03T02:42:05;101446.56;;;4.91;58.76
19286;BME280;9776;50.798;6.430;2023-04-03T02:44:32;101446.56;;;4.91;58.94
19286;BME280;9776;50.798;6.430;2023-04-03T02:46:59;101450.63;;;4.81;59.11
19286;BME280;9776;50.798;6.430;2023-04-03T02:49:25;101448.97;;;4.65;59.54
19286;BME280;9776;50.798;6.430;2023-04-03T02:51:52;101459.06;;;4.55;59.80
19286;BME280;9776;50.798;6.430;2023-04-03T02:54:19;101458.72;;;4.45;59.95
19286;BME280;9776;50.798;6.430;2023-04-03T02:56:46;101447.25;;;4.32;60.14
19286;BME280;9776;50.798;6.430;2023-04-03T02:59:14;101446.63;;;4.27;60.28
19286;BME280;9776;50.798;6.430;2023-04-03T03:01:40;101450.78;;;4.31;60.19
19286;BME280;9776;50.798;6.430;2023-04-03T03:04:07;101455.00;;;4.34;60.17
19286;BME280;9776;50.798;6.430;2023-04-03T03:06:34;101452.78;;;4.26;60.32
19286;BME280;9776;50.798;6.430;2023-04-03T03:09:00;101449.59;;;4.21;60.46
19286;BME280;9776;50.798;6.430;2023-04-03T03:11:27;101449.75;;;4.18;60.60
19286;BME280;9776;50.798;6.430;2023-04-03T03:13:53;101454.19;;;4.16;60.72
19286;BME280;9776;50.798;6.430;2023-04-03T03:16:21;101447.53;;;4.11;60.90
19286;BME280;9776;50.798;6.430;2023-04-03T03:18:48;101453.16;;;4.03;61.01
19286;BME280;9776;50.798;6.430;2023-04-03T03:21:15;101451.56;;;4.00;61.03
19286;BME280;9776;50.798;6.430;2023-04-03T03:23:41;101464.84;;;3.96;61.17
19286;BME280;9776;50.798;6.430;2023-04-03T03:26:09;101449.34;;;3.93;61.25
19286;BME280;9776;50.798;6.430;2023-04-03T03:28:37;101455.56;;;3.90;61.45
19286;BME280;9776;50.798;6.430;2023-04-03T03:31:05;101446.81;;;3.91;61.42
19286;BME280;9776;50.798;6.430;2023-04-03T03:33:33;101446.81;;;3.91;61.42
19286;BME280;9776;50.798;6.430;2023-04-03T03:36:00;101449.19;;;3.96;61.07
19286;BME280;9776;50.798;6.430;2023-04-03T03:38:26;101438.66;;;3.97;61.27
19286;BME280;9776;50.798;6.430;2023-04-03T03:40:53;101450.94;;;3.95;61.41
19286;BME280;9776;50.798;6.430;2023-04-03T03:43:20;101459.19;;;3.88;61.57
19286;BME280;9776;50.798;6.430;2023-04-03T03:45:50;101453.22;;;3.86;61.47
19286;BME280;9776;50.798;6.430;2023-04-03T03:48:17;101459.28;;;3.86;61.57
19286;BME280;9776;50.798;6.430;2023-04-03T03:50:45;101457.31;;;3.90;61.57
19286;BME280;9776;50.798;6.430;2023-04-03T03:53:12;101454.97;;;3.85;61.60
19286;BME280;9776;50.798;6.430;2023-04-03T03:55:38;101455.13;;;3.82;61.76
19286;BME280;9776;50.798;6.430;2023-04-03T03:58:05;101457.03;;;3.79;61.78
19286;BME280;9776;50.798;6.430;2023-04-03T04:00:32;101458.19;;;3.73;61.97
19286;BME280;9776;50.798;6.430;2023-04-03T04:02:58;101461.72;;;3.72;61.96
19286;BME280;9776;50.798;6.430;2023-04-03T04:05:26;101459.38;;;3.68;61.97
19286;BME280;9776;50.798;6.430;2023-04-03T04:07:54;101460.22;;;3.68;61.96
19286;BME280;9776;50.798;6.430;2023-04-03T04:10:20;101457.50;;;3.70;62.02
19286;BME280;9776;50.798;6.430;2023-04-03T04:12:47;101474.13;;;3.69;61.99
19286;BME280;9776;50.798;6.430;2023-04-03T04:15:16;101461.06;;;3.69;62.00
19286;BME280;9776;50.798;6.430;2023-04-03T04:17:43;101464.72;;;3.65;62.12
19286;BME280;9776;50.798;6.430;2023-04-03T04:20:11;101469.25;;;3.61;62.18
19286;BME280;9776;50.798;6.430;2023-04-03T04:22:37;101472.19;;;3.55;62.25
19286;BME280;9776;50.798;6.430;2023-04-03T04:25:06;101475.19;;;3.48;62.53
19286;BME280;9776;50.798;6.430;2023-04-03T04:27:33;101475.47;;;3.41;62.69
19286;BME280;9776;50.798;6.430;2023-04-03T04:30:00;101466.81;;;3.41;62.69
19286;BME280;9776;50.798;6.430;2023-04-03T04:32:28;101470.22;;;3.43;62.73
19286;BME280;9776;50.798;6.430;2023-04-03T04:34:54;101466.66;;;3.44;62.61
19286;BME280;9776;50.798;6.430;2023-04-03T04:37:21;101478.09;;;3.41;62.62
19286;BME280;9776;50.798;6.430;2023-04-03T04:39:48;101481.94;;;3.34;62.75
19286;BME280;9776;50.798;6.430;2023-04-03T04:42:16;101481.44;;;3.26;62.98
19286;BME280;9776;50.798;6.430;2023-04-03T04:44:42;101486.00;;;3.23;63.02
19286;BME280;9776;50.798;6.430;2023-04-03T04:47:09;101489.75;;;3.17;63.17
19286;BME280;9776;50.798;6.430;2023-04-03T04:49:36;101495.94;;;3.15;63.16
19286;BME280;9776;50.798;6.430;2023-04-03T04:52:02;101491.72;;;3.12;63.26
19286;BME280;9776;50.798;6.430;2023-04-03T04:54:29;101493.56;;;3.10;63.28
19286;BME280;9776;50.798;6.430;2023-04-03T04:56:56;101489.09;;;3.12;63.21
19286;BME280;9776;50.798;6.430;2023-04-03T04:59:25;101492.50;;;3.14;63.14
19286;BME280;9776;50.798;6.430;2023-04-03T05:01:52;101495.25;;;3.11;63.13
19286;BME280;9776;50.798;6.430;2023-04-03T05:04:18;101496.94;;;3.12;63.20
19286;BME280;9776;50.798;6.430;2023-04-03T05:06:45;101498.78;;;3.10;63.30
19286;BME280;9776;50.798;6.430;2023-04-03T05:09:12;101499.78;;;3.08;63.43
19286;BME280;9776;50.798;6.430;2023-04-03T05:11:38;101503.50;;;3.02;63.55
19286;BME280;9776;50.798;6.430;2023-04-03T05:14:05;101502.56;;;3.03;63.52
19286;BME280;9776;50.798;6.430;2023-04-03T05:16:34;101504.28;;;3.04;63.38
19286;BME280;9776;50.798;6.430;2023-04-03T05:19:00;101506.88;;;3.04;63.42
19286;BME280;9776;50.798;6.430;2023-04-03T05:21:27;101513.81;;;3.05;63.46
19286;BME280;9776;50.798;6.430;2023-04-03T05:23:57;101512.09;;;3.04;63.52
19286;BME280;9776;50.798;6.430;2023-04-03T05:26:24;101512.03;;;3.06;63.45
19286;BME280;9776;50.798;6.430;2023-04-03T05:28:50;101513.00;;;3.03;63.60
19286;BME280;9776;50.798;6.430;2023-04-03T05:31:17;101513.31;;;2.97;63.67
19286;BME280;9776;50.798;6.430;2023-04-03T05:33:45;101515.56;;;2.86;64.01
19286;BME280;9776;50.798;6.430;2023-04-03T05:36:12;101524.03;;;2.72;64.36
19286;BME280;9776;50.798;6.430;2023-04-03T05:38:40;101520.81;;;2.67;64.67
19286;BME280;9776;50.798;6.430;2023-04-03T05:41:06;101533.06;;;2.65;64.57
19286;BME280;9776;50.798;6.430;2023-04-03T05:43:33;101537.91;;;2.73;64.35
19286;BME280;9776;50.798;6.430;2023-04-03T05:46:02;101541.16;;;2.78;64.26
19286;BME280;9776;50.798;6.430;2023-04-03T05:48:29;101540.16;;;2.80;64.32
19286;BME280;9776;50.798;6.430;2023-04-03T05:50:58;101546.03;;;2.85;64.29
19286;BME280;9776;50.798;6.430;2023-04-03T05:53:27;101538.91;;;2.89;64.22
19286;BME280;9776;50.798;6.430;2023-04-03T05:55:54;101537.00;;;2.93;64.17
19286;BME280;9776;50.798;6.430;2023-04-03T05:58:21;101544.81;;;2.93;64.31
19286;BME280;9776;50.798;6.430;2023-04-03T06:00:47;101549.53;;;3.03;64.07
19286;BME280;9776;50.798;6.430;2023-04-03T06:03:14;101550.09;;;3.10;63.94
19286;BME280;9776;50.798;6.430;2023-04-03T06:05:42;101548.03;;;3.16;63.87
19286;BME280;9776;50.798;6.430;2023-04-03T06:08:10;101545.91;;;3.24;63.86
19286;BME280;9776;50.798;6.430;2023-04-03T06:10:37;101552.75;;;3.27;63.92
19286;BME280;9776;50.798;6.430;2023-04-03T06:13:05;101548.09;;;3.33;63.81
19286;BME280;9776;50.798;6.430;2023-04-03T06:15:32;101545.72;;;3.29;63.93
19286;BME280;9776;50.798;6.430;2023-04-03T06:17:59;101544.88;;;3.28;64.16
19286;BME280;9776;50.798;6.430;2023-04-03T06:20:25;101556.53;;;3.38;64.01
19286;BME280;9776;50.798;6.430;2023-04-03T06:22:52;101557.00;;;3.47;63.82
19286;BME280;9776;50.798;6.430;2023-04-03T06:25:20;101560.88;;;3.57;63.64
19286;BME280;9776;50.798;6.430;2023-04-03T06:27:47;101568.25;;;3.66;63.46
19286;BME280;9776;50.798;6.430;2023-04-03T06:30:13;101563.41;;;3.75;63.09
19286;BME280;9776;50.798;6.430;2023-04-03T06:32:40;101567.28;;;3.85;62.96
19286;BME280;9776;50.798;6.430;2023-04-03T06:35:08;101559.88;;;3.93;62.83
19286;BME280;9776;50.798;6.430;2023-04-03T06:37:36;101567.34;;;4.01;62.58
19286;BME280;9776;50.798;6.430;2023-04-03T06:40:03;101568.72;;;4.08;62.46
19286;BME280;9776;50.798;6.430;2023-04-03T06:42:32;101568.84;;;4.22;62.12
19286;BME280;9776;50.798;6.430;2023-04-03T06:44:58;101568.66;;;4.42;61.90
19286;BME280;9776;50.798;6.430;2023-04-03T06:47:25;101566.81;;;4.77;61.38
19286;BME280;9776;50.798;6.430;2023-04-03T06:49:52;101572.59;;;5.60;60.29
19286;BME280;9776;50.798;6.430;2023-04-03T06:52:19;101568.28;;;6.49;58.64
19286;BME280;9776;50.798;6.430;2023-04-03T06:54:46;101560.31;;;7.19;57.26
19286;BME280;9776;50.798;6.430;2023-04-03T06:57:13;101565.38;;;7.76;56.20
19286;BME280;9776;50.798;6.430;2023-04-03T06:59:42;101569.47;;;8.32;54.97
19286;BME280;9776;50.798;6.430;2023-04-03T07:02:10;101561.94;;;8.89;53.94
19286;BME280;9776;50.798;6.430;2023-04-03T07:04:38;101561.97;;;9.49;52.95
19286;BME280;9776;50.798;6.430;2023-04-03T07:07:04;101564.22;;;10.01;51.87
19286;BME280;9776;50.798;6.430;2023-04-03T07:09:31;101556.16;;;10.48;50.80
19286;BME280;9776;50.798;6.430;2023-04-03T07:11:58;101560.34;;;10.95;49.82
19286;BME280;9776;50.798;6.430;2023-04-03T07:14:24;101558.69;;;11.48;48.61
19286;BME280;9776;50.798;6.430;2023-04-03T07:16:52;101558.00;;;11.67;47.89
19286;BME280;9776;50.798;6.430;2023-04-03T07:19:19;101559.81;;;11.77;47.43
19286;BME280;9776;50.798;6.430;2023-04-03T07:21:46;101557.06;;;12.20;46.42
19286;BME280;9776;50.798;6.430;2023-04-03T07:24:13;101568.59;;;12.70;45.19
19286;BME280;9776;50.798;6.430;2023-04-03T07:26:40;101554.31;;;12.92;44.80
19286;BME280;9776;50.798;6.430;2023-04-03T07:29:06;101566.03;;;13.29;43.80
19286;BME280;9776;50.798;6.430;2023-04-03T07:31:33;101563.53;;;13.56;43.41
19286;BME280;9776;50.798;6.430;2023-04-03T07:34:01;101569.00;;;13.93;42.38
19286;BME280;9776;50.798;6.430;2023-04-03T07:36:28;101567.97;;;14.42;41.54
19286;BME280;9776;50.798;6.430;2023-04-03T07:38:58;101568.94;;;14.78;40.65
19286;BME280;9776;50.798;6.430;2023-04-03T07:41:25;101569.41;;;15.01;40.22
19286;BME280;9776;50.798;6.430;2023-04-03T07:43:51;101563.31;;;15.18;39.71
19286;BME280;9776;50.798;6.430;2023-04-03T07:46:18;101564.41;;;14.98;39.36
19286;BME280;9776;50.798;6.430;2023-04-03T07:48:45;101561.56;;;14.72;39.01
19286;BME280;9776;50.798;6.430;2023-04-03T07:51:22;101564.53;;;14.96;38.29
19286;BME280;9776;50.798;6.430;2023-04-03T07:53:49;101569.09;;;15.04;38.40
19286;BME280;9776;50.798;6.430;2023-04-03T07:56:16;101563.13;;;15.82;37.03
19286;BME280;9776;50.798;6.430;2023-04-03T07:58:43;101564.53;;;16.12;36.26
19286;BME280;9776;50.798;6.430;2023-04-03T08:01:10;101569.47;;;16.24;36.46
19286;BME280;9776;50.798;6.430;2023-04-03T08:03:38;101569.88;;;16.89;35.41
19286;BME280;9776;50.798;6.430;2023-04-03T08:06:06;101566.81;;;17.26;34.77
19286;BME280;9776;50.798;6.430;2023-04-03T08:08:35;101568.94;;;17.56;34.05
19286;BME280;9776;50.798;6.430;2023-04-03T08:11:02;101579.66;;;18.04;33.41
19286;BME280;9776;50.798;6.430;2023-04-03T08:13:31;101574.63;;;18.26;33.04
19286;BME280;9776;50.798;6.430;2023-04-03T08:15:58;101573.94;;;18.40;32.59
19286;BME280;9776;50.798;6.430;2023-04-03T08:18:32;101562.59;;;19.01;31.91
19286;BME280;9776;50.798;6.430;2023-04-03T08:20:59;101569.31;;;19.81;31.00
19286;BME280;9776;50.798;6.430;2023-04-03T08:23:26;101572.84;;;20.56;29.94
19286;BME280;9776;50.798;6.430;2023-04-03T08:25:54;101566.03;;;21.19;28.90
19286;BME280;9776;50.798;6.430;2023-04-03T08:28:20;101568.09;;;20.87;29.06
19286;BME280;9776;50.798;6.430;2023-04-03T08:30:47;101568.72;;;19.71;30.50
19286;BME280;9776;50.798;6.430;2023-04-03T08:33:13;101570.97;;;20.42;29.58
19286;BME280;9776;50.798;6.430;2023-04-03T08:35:41;101564.97;;;20.69;29.13
19286;BME280;9776;50.798;6.430;2023-04-03T08:38:09;101579.47;;;19.01;30.69
19286;BME280;9776;50.798;6.430;2023-04-03T08:40:35;101567.59;;;19.04;30.76
19286;BME280;9776;50.798;6.430;2023-04-03T08:43:21;101572.94;;;19.88;29.27
19286;BME280;9776;50.798;6.430;2023-04-03T08:45:55;101575.16;;;20.22;28.64
19286;BME280;9776;50.798;6.430;2023-04-03T08:48:26;101576.81;;;18.38;30.25
19286;BME280;9776;50.798;6.430;2023-04-03T08:50:57;101579.94;;;17.03;31.71
19286;BME280;9776;50.798;6.430;2023-04-03T08:53:28;101575.97;;;17.15;31.61
19286;BME280;9776;50.798;6.430;2023-04-03T08:55:58;101575.94;;;18.30;29.73
19286;BME280;9776;50.798;6.430;2023-04-03T08:58:28;101569.66;;;19.24;28.39
19286;BME280;9776;50.798;6.430;2023-04-03T09:00:59;101580.47;;;20.30;27.25
19286;BME280;9776;50.798;6.430;2023-04-03T09:03:29;101577.91;;;20.36;27.11
19286;BME280;9776;50.798;6.430;2023-04-03T09:06:00;101578.81;;;20.44;27.13
19286;BME280;9776;50.798;6.430;2023-04-03T09:08:30;101579.69;;;21.74;25.65
19286;BME280;9776;50.798;6.430;2023-04-03T09:11:07;101581.44;;;22.58;24.82
19286;BME280;9776;50.798;6.430;2023-04-03T09:13:44;101576.81;;;22.74;24.49
19286;BME280;9776;50.798;6.430;2023-04-03T09:16:20;101578.22;;;23.78;23.50
19286;BME280;9776;50.798;6.430;2023-04-03T09:18:57;101574.72;;;24.43;22.87
19286;BME280;9776;50.798;6.430;2023-04-03T09:21:29;101579.16;;;25.08;22.22
19286;BME280;9776;50.798;6.430;2023-04-03T09:23:59;101575.09;;;25.99;21.46
19286;BME280;9776;50.798;6.430;2023-04-03T09:26:31;101589.50;;;26.85;20.35
19286;BME280;9776;50.798;6.430;2023-04-03T09:29:05;101569.56;;;27.28;20.07
19286;BME280;9776;50.798;6.430;2023-04-03T09:31:36;101572.84;;;27.78;19.16
19286;BME280;9776;50.798;6.430;2023-04-03T09:34:06;101574.09;;;27.04;19.56
19286;BME280;9776;50.798;6.430;2023-04-03T09:36:38;101560.31;;;25.95;20.04
19286;BME280;9776;50.798;6.430;2023-04-03T09:39:09;101571.25;;;26.56;19.35
19286;BME280;9776;50.798;6.430;2023-04-03T09:41:37;101559.19;;;27.43;19.08
19286;BME280;9776;50.798;6.430;2023-04-03T09:44:20;101560.06;;;28.31;18.05
19286;BME280;9776;50.798;6.430;2023-04-03T09:46:47;101558.00;;;28.96;17.41
19286;BME280;9776;50.798;6.430;2023-04-03T09:49:13;101551.50;;;29.82;17.11
19286;BME280;9776;50.798;6.430;2023-04-03T09:51:40;101557.19;;;28.84;16.68
19286;BME280;9776;50.798;6.430;2023-04-03T09:54:26;101556.38;;;28.60;16.80
19286;BME280;9776;50.798;6.430;2023-04-03T09:56:53;101541.81;;;27.85;17.08
19286;BME280;9776;50.798;6.430;2023-04-03T09:59:22;101546.00;;;28.23;16.98
19286;BME280;9776;50.798;6.430;2023-04-03T10:01:58;101556.03;;;28.80;16.49
19286;BME280;9776;50.798;6.430;2023-04-03T10:04:25;101539.63;;;29.43;16.37
19286;BME280;9776;50.798;6.430;2023-04-03T10:06:53;101541.94;;;29.35;16.24
19286;BME280;9776;50.798;6.430;2023-04-03T10:09:22;101539.44;;;29.78;16.00
19286;BME280;9776;50.798;6.430;2023-04-03T10:12:00;101538.72;;;30.16;15.64
19286;BME280;9776;50.798;6.430;2023-04-03T10:14:32;101535.06;;;29.77;15.48
19286;BME280;9776;50.798;6.430;2023-04-03T10:17:05;101541.75;;;29.13;15.88
19286;BME280;9776;50.798;6.430;2023-04-03T10:19:40;101537.28;;;28.44;16.00
19286;BME280;9776;50.798;6.430;2023-04-03T10:22:20;101534.91;;;29.10;15.73
19286;BME280;9776;50.798;6.430;2023-04-03T10:24:54;101536.25;;;30.53;15.24
19286;BME280;9776;50.798;6.430;2023-04-03T10:27:37;101525.25;;;31.98;14.50
19286;BME280;9776;50.798;6.430;2023-04-03T10:30:20;101525.81;;;32.32;14.09
19286;BME280;9776;50.798;6.430;2023-04-03T10:32:58;101521.63;;;31.82;14.17
19286;BME280;9776;50.798;6.430;2023-04-03T10:35:36;101519.22;;;30.84;14.73
19286;BME280;9776;50.798;6.430;2023-04-03T10:38:11;101516.41;;;30.02;14.89
19286;BME280;9776;50.798;6.430;2023-04-03T10:40:47;101513.19;;;30.82;14.31
19286;BME280;9776;50.798;6.430;2023-04-03T10:43:21;101506.19;;;31.66;13.90
19286;BME280;9776;50.798;6.430;2023-04-03T10:45:58;101519.19;;;32.18;13.07
19286;BME280;9776;50.798;6.430;2023-04-03T10:48:39;101504.75;;;31.59;13.42
19286;BME280;9776;50.798;6.430;2023-04-03T10:51:16;101505.13;;;30.92;14.05
19286;BME280;9776;50.798;6.430;2023-04-03T10:53:53;101509.75;;;31.40;13.63
19286;BME280;9776;50.798;6.430;2023-04-03T10:56:30;101505.59;;;31.96;13.50
19286;BME280;9776;50.798;6.430;2023-04-03T10:59:02;101511.13;;;32.48;13.17
19286;BME280;9776;50.798;6.430;2023-04-03T11:01:38;101511.97;;;32.53;13.32
19286;BME280;9776;50.798;6.430;2023-04-03T11:04:06;101508.28;;;32.85;13.10
19286;BME280;9776;50.798;6.430;2023-04-03T11:06:37;101508.34;;;33.05;12.64
19286;BME280;9776;50.798;6.430;2023-04-03T11:09:14;101500.84;;;31.81;12.85
19286;BME280;9776;50.798;6.430;2023-04-03T11:11:43;101500.34;;;31.89;13.00
19286;BME280;9776;50.798;6.430;2023-04-03T11:14:14;101499.88;;;32.39;12.63
19286;BME280;9776;50.798;6.430;2023-04-03T11:16:49;101499.88;;;33.01;12.26
19286;BME280;9776;50.798;6.430;2023-04-03T11:19:21;101486.03;;;33.58;12.08
19286;BME280;9776;50.798;6.430;2023-04-03T11:21:54;101484.34;;;34.03;11.54
19286;BME280;9776;50.798;6.430;2023-04-03T11:24:25;101479.69;;;33.48;11.88
19286;BME280;9776;50.798;6.430;2023-04-03T11:26:55;101481.34;;;32.46;12.43
19286;BME280;9776;50.798;6.430;2023-04-03T11:29:24;101480.34;;;32.68;12.17
19286;BME280;9776;50.798;6.430;2023-04-03T11:32:08;101476.34;;;31.01;12.99
19286;BME280;9776;50.798;6.430;2023-04-03T11:34:38;101489.31;;;30.67;13.10
19286;BME280;9776;50.798;6.430;2023-04-03T11:37:13;101469.91;;;31.12;13.32
19286;BME280;9776;50.798;6.430;2023-04-03T11:39:48;101466.00;;;31.98;12.79
19286;BME280;9776;50.798;6.430;2023-04-03T11:42:25;101465.41;;;32.95;12.27
19286;BME280;9776;50.798;6.430;2023-04-03T11:45:17;101461.53;;;32.86;12.03
19286;BME280;9776;50.798;6.430;2023-04-03T11:47:52;101461.91;;;33.91;11.52
19286;BME280;9776;50.798;6.430;2023-04-03T11:50:40;101448.22;;;33.81;11.31
19286;BME280;9776;50.798;6.430;2023-04-03T11:53:31;101453.44;;;33.47;11.35
19286;BME280;9776;50.798;6.430;2023-04-03T11:56:01;101457.53;;;33.44;11.25
19286;BME280;9776;50.798;6.430;2023-04-03T11:58:30;101448.34;;;32.06;11.53
19286;BME280;9776;50.798;6.430;2023-04-03T12:01:06;101441.81;;;32.12;11.70
19286;BME280;9776;50.798;6.430;2023-04-03T12:03:57;101439.38;;;32.73;11.42
19286;BME280;9776;50.798;6.430;2023-04-03T12:07:08;101439.69;;;33.97;10.95
19286;BME280;9776;50.798;6.430;2023-04-03T12:10:12;101428.28;;;34.59;10.90
19286;BME280;9776;50.798;6.430;2023-04-03T12:12:41;101428.69;;;34.17;10.98
19286;BME280;9776;50.798;6.430;2023-04-03T12:15:24;101429.03;;;33.86;11.12
19286;BME280;9776;50.798;6.430;2023-04-03T12:17:51;101416.84;;;34.32;10.98
19286;BME280;9776;50.798;6.430;2023-04-03T12:20:54;101426.69;;;32.51;11.65
19286;BME280;9776;50.798;6.430;2023-04-03T12:23:30;101418.66;;;31.14;12.35
19286;BME280;9776;50.798;6.430;2023-04-03T12:26:06;101410.91;;;31.65;12.38
19286;BME280;9776;50.798;6.430;2023-04-03T12:28:48;101422.13;;;32.10;11.91
19286;BME280;9776;50.798;6.430;2023-04-03T12:31:18;101409.31;;;32.16;11.83
19286;BME280;9776;50.798;6.430;2023-04-03T12:33:59;101408.78;;;32.24;11.88
19286;BME280;9776;50.798;6.430;2023-04-03T12:36:37;101399.44;;;31.63;12.16
19286;BME280;9776;50.798;6.430;2023-04-03T12:39:16;101398.31;;;30.47;12.25
19286;BME280;9776;50.798;6.430;2023-04-03T12:41:53;101394.97;;;30.01;12.74
19286;BME280;9776;50.798;6.430;2023-04-03T12:44:37;101394.50;;;31.28;12.25
19286;BME280;9776;50.798;6.430;2023-04-03T12:47:20;101394.78;;;31.63;11.75
19286;BME280;9776;50.798;6.430;2023-04-03T12:49:49;101403.81;;;30.30;11.95
19286;BME280;9776;50.798;6.430;2023-04-03T12:52:30;101411.59;;;30.21;11.85
19286;BME280;9776;50.798;6.430;2023-04-03T12:54:59;101391.31;;;30.12;11.70
19286;BME280;9776;50.798;6.430;2023-04-03T12:57:30;101401.59;;;29.55;12.14
19286;BME280;9776;50.798;6.430;2023-04-03T12:59:58;101393.50;;;28.14;12.27
19286;BME280;9776;50.798;6.430;2023-04-03T13:02:27;101388.13;;;27.56;12.68
19286;BME280;9776;50.798;6.430;2023-04-03T13:04:56;101387.97;;;27.74;12.67
19286;BME280;9776;50.798;6.430;2023-04-03T13:07:28;101388.22;;;25.76;13.22
19286;BME280;9776;50.798;6.430;2023-04-03T13:10:14;101390.94;;;23.34;15.07
19286;BME280;9776;50.798;6.430;2023-04-03T13:12:49;101391.47;;;21.12;16.14
19286;BME280;9776;50.798;6.430;2023-04-03T13:15:18;101383.88;;;20.00;17.41
19286;BME280;9776;50.798;6.430;2023-04-03T13:17:46;101383.19;;;19.32;18.24
19286;BME280;9776;50.798;6.430;2023-04-03T13:20:19;101387.94;;;18.45;18.75